Time;durP1;ratioP1;P1;durP2;ratioP2;P2;SDS_P1;SDS_P2;PMS_P1;PMS_P2;Temp;Humidity;BMP_temperature;BMP_pressure;BME280_temperature;BME280_humidity;BME280_pressure;Samples;Min_cycle;Max_cycle;Signal;HPM_P1;HPM_P2
2022/08/10 00:00:41;;;;;;;;;;;;;;;21.69;46.16;102552.06;5084449;28;20054;-88
2022/08/10 00:03:08;;;;;;;;;;;;;;;21.71;46.40;102551.97;5087134;28;19920;-88
2022/08/10 00:05:34;;;;;;;;;;;;;;;21.69;45.28;102548.53;5087328;28;20544;-88
2022/08/10 00:07:59;;;;;;;;;;;;;;;21.66;46.49;102544.19;5081933;28;20014;-88
2022/08/10 00:10:24;;;;;;;;;;;;;;;21.63;45.59;102549.72;5086582;28;19920;-88
2022/08/10 00:12:50;;;;;;;;;;;;;;;21.57;45.02;102550.09;5087020;28;20294;-88
2022/08/10 00:15:16;;;;;;;;;;;;;;;21.48;44.80;102545.25;5085193;28;20386;-88
2022/08/10 00:17:42;;;;;;;;;;;;;;;21.37;44.98;102540.53;5078323;28;20357;-88
2022/08/10 00:20:07;;;;;;;;;;;;;;;21.29;45.01;102540.94;5085124;28;19916;-88
2022/08/10 00:22:33;;;;;;;;;;;;;;;21.26;45.50;102542.91;5087136;28;20267;-88
2022/08/10 00:24:58;;;;;;;;;;;;;;;21.25;45.14;102538.50;5080750;28;19924;-88
2022/08/10 00:27:24;;;;;;;;;;;;;;;21.23;45.14;102541.28;5084469;28;19973;-88
2022/08/10 00:29:49;;;;;;;;;;;;;;;21.19;45.30;102537.03;5087490;28;20027;-88
2022/08/10 00:32:14;;;;;;;;;;;;;;;21.12;45.20;102535.66;5087286;28;19916;-88
2022/08/10 00:34:40;;;;;;;;;;;;;;;21.11;45.25;102529.41;5081760;28;20398;-88
2022/08/10 00:37:05;;;;;;;;;;;;;;;21.09;46.34;102527.78;5081440;28;19924;-89
2022/08/10 00:39:30;;;;;;;;;;;;;;;21.09;47.50;102527.78;5084397;28;20437;-88
2022/08/10 00:41:55;;;;;;;;;;;;;;;21.06;47.02;102519.88;5063254;28;19932;-88
2022/08/10 00:44:20;;;;;;;;;;;;;;;20.94;46.51;102526.84;5081842;28;19916;-88
2022/08/10 00:46:46;;;;;;;;;;;;;;;20.86;46.05;102521.03;5083002;28;19920;-88
2022/08/10 00:49:11;;;;;;;;;;;;;;;20.77;46.71;102516.16;5080782;28;20423;-88
2022/08/10 00:51:37;;;;;;;;;;;;;;;20.77;46.06;102516.16;5077398;28;20527;-88
2022/08/10 00:54:02;;;;;;;;;;;;;;;20.71;46.69;102521.91;5060825;28;19935;-88
2022/08/10 00:56:27;;;;;;;;;;;;;;;20.65;47.26;102517.72;5081815;28;20455;-88
2022/08/10 00:58:53;;;;;;;;;;;;;;;20.64;46.70;102521.34;5079917;28;19969;-88
2022/08/10 01:01:18;;;;;;;;;;;;;;;20.69;48.25;102521.09;5082775;28;20322;-88
2022/08/10 01:03:43;;;;;;;;;;;;;;;20.70;46.50;102515.63;5084014;28;19923;-88
2022/08/10 01:06:13;;;;;;;;;;;;;;;20.62;47.52;102517.91;5082032;28;19920;-88
2022/08/10 01:08:45;;;;;;;;;;;;;;;20.65;48.10;102509.66;5063650;28;20376;-88
2022/08/10 01:11:13;;;;;;;;;;;;;;;20.66;48.58;102515.88;5052877;28;20371;-88
2022/08/10 01:13:38;;;;;;;;;;;;;;;20.63;49.39;102512.44;5082025;28;20336;-88
2022/08/10 01:16:09;;;;;;;;;;;;;;;20.59;46.52;102518.94;5084125;28;20042;-88
2022/08/10 01:18:40;;;;;;;;;;;;;;;20.44;47.66;102513.50;5078972;28;19956;-88
2022/08/10 01:21:15;;;;;;;;;;;;;;;20.34;47.29;102508.66;5079753;28;19917;-88
2022/08/10 01:23:50;;;;;;;;;;;;;;;20.30;47.10;102506.22;5085050;28;19990;-88
2022/08/10 01:26:24;;;;;;;;;;;;;;;20.23;47.23;102508.34;5084467;28;19927;-88
2022/08/10 01:28:55;;;;;;;;;;;;;;;20.25;49.01;102505.59;5075414;28;19953;-88
2022/08/10 01:31:22;;;;;;;;;;;;;;;20.23;47.78;102504.78;5081088;28;19916;-88
2022/08/10 01:33:53;;;;;;;;;;;;;;;20.20;49.68;102497.78;5086133;28;19923;-87
2022/08/10 01:36:23;;;;;;;;;;;;;;;20.22;49.03;102503.06;5076539;28;20234;-88
2022/08/10 01:38:50;;;;;;;;;;;;;;;20.20;47.29;102511.22;5082315;28;19916;-88
2022/08/10 01:41:21;;;;;;;;;;;;;;;20.16;50.40;102516.84;5086163;28;19940;-88
2022/08/10 01:43:49;;;;;;;;;;;;;;;20.16;47.22;102508.78;5087057;28;19916;-88
2022/08/10 01:46:16;;;;;;;;;;;;;;;20.12;51.19;102508.06;5084456;28;19916;-88
2022/08/10 01:48:46;;;;;;;;;;;;;;;20.09;48.46;102511.78;5066733;28;19921;-88
2022/08/10 01:51:14;;;;;;;;;;;;;;;19.96;49.51;102512.50;5081897;28;19916;-88
2022/08/10 01:53:53;;;;;;;;;;;;;;;19.92;48.73;102508.28;5067071;28;20379;-88
2022/08/10 01:56:19;;;;;;;;;;;;;;;19.82;48.56;102506.06;5064859;28;19920;-88
2022/08/10 01:58:49;;;;;;;;;;;;;;;19.80;50.89;102507.09;5075249;28;19920;-88
2022/08/10 02:01:17;;;;;;;;;;;;;;;19.82;49.16;102516.81;5083577;28;19924;-88
2022/08/10 02:03:43;;;;;;;;;;;;;;;19.80;50.24;102509.78;5079906;28;19934;-88
2022/08/10 02:06:11;;;;;;;;;;;;;;;19.67;49.20;102506.00;5062690;28;19962;-88
2022/08/10 02:08:36;;;;;;;;;;;;;;;19.65;52.17;102506.09;5080576;28;19999;-88
2022/08/10 02:11:02;;;;;;;;;;;;;;;19.67;51.40;102506.00;5084203;28;20015;-88
2022/08/10 02:13:27;;;;;;;;;;;;;;;19.67;49.99;102506.00;5079154;28;19927;-88
2022/08/10 02:15:54;;;;;;;;;;;;;;;19.58;50.00;102509.97;5079466;28;19924;-88
2022/08/10 02:18:21;;;;;;;;;;;;;;;19.50;50.08;102504.16;5073578;28;19924;-88
2022/08/10 02:20:47;;;;;;;;;;;;;;;19.49;49.10;102505.09;5071140;28;19916;-88
2022/08/10 02:23:31;;;;;;;;;;;;;;;19.47;49.81;102490.91;5083733;28;19924;-88
2022/08/10 02:25:58;;;;;;;;;;;;;;;19.42;51.35;102499.19;5057714;28;19924;-88
2022/08/10 02:28:24;;;;;;;;;;;;;;;19.42;50.76;102490.25;5076170;28;20095;-88
2022/08/10 02:30:51;;;;;;;;;;;;;;;19.36;50.18;102492.31;5078385;28;19930;-88
2022/08/10 02:33:17;;;;;;;;;;;;;;;19.30;50.00;102500.66;5067845;28;19916;-88
2022/08/10 02:35:44;;;;;;;;;;;;;;;19.28;50.03;102496.31;5085734;28;19939;-88
2022/08/10 02:38:11;;;;;;;;;;;;;;;19.25;50.04;102494.66;5067050;28;19989;-88
2022/08/10 02:40:38;;;;;;;;;;;;;;;19.21;50.55;102498.47;5082824;28;21640;-88
2022/08/10 02:43:15;;;;;;;;;;;;;;;19.12;50.52;102509.66;5065928;28;19920;-88
2022/08/10 02:45:42;;;;;;;;;;;;;;;19.08;50.46;102506.25;5062970;28;20011;-89
2022/08/10 02:48:15;;;;;;;;;;;;;;;19.08;51.75;102500.00;5061418;28;19998;-87
2022/08/10 02:50:41;;;;;;;;;;;;;;;19.12;51.06;102496.25;5082507;28;19962;-88
2022/08/10 02:53:21;;;;;;;;;;;;;;;19.07;50.64;102495.56;5081868;28;19927;-88
2022/08/10 02:56:01;;;;;;;;;;;;;;;18.95;50.98;102488.16;5082794;28;19917;-88
2022/08/10 02:58:36;;;;;;;;;;;;;;;18.91;50.67;102491.91;5082038;28;19935;-88
2022/08/10 03:01:07;;;;;;;;;;;;;;;18.92;51.29;102480.25;5066640;28;19920;-88
2022/08/10 03:03:36;;;;;;;;;;;;;;;18.90;50.96;102477.66;5078982;28;19921;-88
2022/08/10 03:06:08;;;;;;;;;;;;;;;18.91;50.83;102483.88;5086091;28;19920;-88
2022/08/10 03:08:35;;;;;;;;;;;;;;;18.92;50.86;102475.75;5079756;28;20011;-88
2022/08/10 03:11:02;;;;;;;;;;;;;;;18.93;51.38;102476.63;5072971;28;19920;-88
2022/08/10 03:13:28;;;;;;;;;;;;;;;18.89;51.06;102467.88;5080090;28;19916;-88
2022/08/10 03:15:54;;;;;;;;;;;;;;;18.84;50.55;102478.84;5076506;28;19920;-88
2022/08/10 03:18:21;;;;;;;;;;;;;;;18.78;50.72;102471.06;5076591;28;19931;-88
2022/08/10 03:20:47;;;;;;;;;;;;;;;18.75;51.76;102473.06;5072660;28;20010;-88
2022/08/10 03:23:15;;;;;;;;;;;;;;;18.73;51.89;102470.44;5078796;28;19966;-89
2022/08/10 03:25:42;;;;;;;;;;;;;;;18.65;51.53;102472.56;5066138;28;19920;-88
2022/08/10 03:28:07;;;;;;;;;;;;;;;18.63;51.89;102470.91;5077066;28;19962;-88
2022/08/10 03:30:33;;;;;;;;;;;;;;;18.59;52.66;102470.19;5061760;28;19920;-88
2022/08/10 03:33:01;;;;;;;;;;;;;;;18.59;53.53;102467.50;5078059;28;20389;-88
2022/08/10 03:35:27;;;;;;;;;;;;;;;18.61;54.08;102466.50;5081236;28;20348;-88
2022/08/10 03:37:52;;;;;;;;;;;;;;;18.63;52.09;102471.78;5082286;28;20386;-87
2022/08/10 03:40:17;;;;;;;;;;;;;;;18.58;52.01;102471.13;5057134;28;19916;-88
2022/08/10 03:42:45;;;;;;;;;;;;;;;18.58;52.49;102471.13;5084543;28;19924;-88
2022/08/10 03:45:11;;;;;;;;;;;;;;;18.57;51.83;102472.94;5079048;28;20279;-88
2022/08/10 03:47:38;;;;;;;;;;;;;;;18.50;52.30;102475.97;5056969;28;19923;-87
2022/08/10 03:50:03;;;;;;;;;;;;;;;18.39;52.36;102479.19;5079973;28;19920;-88
2022/08/10 03:52:29;;;;;;;;;;;;;;;18.33;52.32;102480.34;5076006;28;19924;-87
2022/08/10 03:54:55;;;;;;;;;;;;;;;18.31;52.30;102475.97;5056813;28;20006;-87
2022/08/10 03:57:20;;;;;;;;;;;;;;;18.27;52.11;102485.97;5073455;28;19931;-87
2022/08/10 03:59:46;;;;;;;;;;;;;;;18.24;52.63;102483.44;5079278;28;20246;-87
2022/08/10 04:02:12;;;;;;;;;;;;;;;18.26;52.72;102486.03;5063006;28;19916;-88
2022/08/10 04:04:37;;;;;;;;;;;;;;;18.19;52.36;102476.56;5070607;28;19912;-88
2022/08/10 04:07:02;;;;;;;;;;;;;;;18.15;52.57;102483.00;5083021;28;20019;-88
2022/08/10 04:09:32;;;;;;;;;;;;;;;18.15;52.65;102483.00;5078550;28;19916;-88
2022/08/10 04:11:57;;;;;;;;;;;;;;;18.11;52.48;102479.59;5080842;28;19955;-87
2022/08/10 04:14:22;;;;;;;;;;;;;;;18.06;52.94;102482.47;5078221;28;19963;-88
2022/08/10 04:16:47;;;;;;;;;;;;;;;18.04;52.92;102481.66;5060239;28;19920;-88
2022/08/10 04:19:14;;;;;;;;;;;;;;;18.01;52.77;102480.94;5077980;28;19920;-87
2022/08/10 04:21:41;;;;;;;;;;;;;;;18.01;52.83;102483.63;5069870;28;20359;-87
2022/08/10 04:24:08;;;;;;;;;;;;;;;17.98;53.21;102486.44;5073058;28;19916;-87
2022/08/10 04:26:33;;;;;;;;;;;;;;;17.95;52.90;102486.56;5073412;28;19988;-88
2022/08/10 04:28:59;;;;;;;;;;;;;;;17.84;53.03;102493.25;5077036;28;20374;-87
2022/08/10 04:31:26;;;;;;;;;;;;;;;17.73;54.18;102494.66;5056904;28;20291;-87
2022/08/10 04:33:51;;;;;;;;;;;;;;;17.76;53.69;102486.50;5081103;28;19974;-87
2022/08/10 04:36:17;;;;;;;;;;;;;;;17.77;53.94;102483.78;5078544;28;19916;-88
2022/08/10 04:38:43;;;;;;;;;;;;;;;17.81;53.41;102487.16;5060872;28;19912;-88
2022/08/10 04:41:08;;;;;;;;;;;;;;;17.82;53.21;102487.13;5066436;28;19916;-88
2022/08/10 04:43:34;;;;;;;;;;;;;;;17.81;53.73;102488.06;5088388;28;19916;-88
2022/08/10 04:45:59;;;;;;;;;;;;;;;17.81;55.36;102490.75;5068138;28;19994;-88
2022/08/10 04:48:24;;;;;;;;;;;;;;;17.87;53.83;102497.63;5081778;28;19943;-87
2022/08/10 04:50:50;;;;;;;;;;;;;;;17.87;53.60;102489.59;5077614;28;19916;-87
2022/08/10 04:53:15;;;;;;;;;;;;;;;17.80;54.24;102483.63;5062112;28;20391;-87
2022/08/10 04:55:40;;;;;;;;;;;;;;;17.69;56.27;102483.22;5083672;28;19928;-87
2022/08/10 04:58:05;;;;;;;;;;;;;;;17.58;54.94;102483.69;5082598;28;19958;-87
2022/08/10 05:00:30;;;;;;;;;;;;;;;17.65;54.43;102486.09;5082394;28;19927;-88
2022/08/10 05:02:56;;;;;;;;;;;;;;;17.75;55.40;102482.97;5078190;28;20279;-87
2022/08/10 05:05:21;;;;;;;;;;;;;;;17.72;54.44;102477.75;5088722;28;19958;-88
2022/08/10 05:07:46;;;;;;;;;;;;;;;17.82;54.81;102479.09;5088630;28;19916;-88
2022/08/10 05:10:11;;;;;;;;;;;;;;;17.92;54.66;102476.00;5081616;28;19939;-87
2022/08/10 05:12:37;;;;;;;;;;;;;;;18.00;55.93;102481.88;5081669;28;19970;-88
2022/08/10 05:15:10;;;;;;;;;;;;;;;18.07;55.76;102489.56;5086311;28;19920;-88
2022/08/10 05:17:35;;;;;;;;;;;;;;;18.14;54.44;102479.47;5066681;28;19974;-88
2022/08/10 05:20:02;;;;;;;;;;;;;;;18.19;57.49;102476.56;5083436;28;19919;-88
2022/08/10 05:22:27;;;;;;;;;;;;;;;18.24;55.55;102475.41;5083449;28;19912;-88
2022/08/10 05:24:52;;;;;;;;;;;;;;;18.30;58.27;102477.78;5085523;28;20349;-88
2022/08/10 05:27:17;;;;;;;;;;;;;;;18.33;58.33;102483.03;5083905;28;19978;-88
2022/08/10 05:29:42;;;;;;;;;;;;;;;18.39;57.47;102484.53;5054942;28;20448;-88
2022/08/10 05:32:09;;;;;;;;;;;;;;;18.43;57.05;102493.31;5077491;28;20451;-88
2022/08/10 05:34:34;;;;;;;;;;;;;;;18.45;58.46;102494.09;5085777;28;19924;-88
2022/08/10 05:37:00;;;;;;;;;;;;;;;18.46;60.01;102495.81;5089024;28;20398;-88
2022/08/10 05:39:25;;;;;;;;;;;;;;;18.47;59.25;102497.56;5061427;28;20053;-88
2022/08/10 05:41:52;;;;;;;;;;;;;;;18.49;60.06;102501.03;5081677;28;20402;-88
2022/08/10 05:44:18;;;;;;;;;;;;;;;18.53;60.94;102492.78;5065725;28;19920;-88
2022/08/10 05:46:44;;;;;;;;;;;;;;;18.56;59.62;102498.00;5082512;28;20019;-88
2022/08/10 05:49:09;;;;;;;;;;;;;;;18.60;59.51;102490.66;5079629;28;20006;-88
2022/08/10 05:51:34;;;;;;;;;;;;;;;18.66;60.23;102486.84;5078204;28;19999;-88
2022/08/10 05:54:00;;;;;;;;;;;;;;;18.67;60.24;102497.50;5078988;28;20273;-88
2022/08/10 05:56:26;;;;;;;;;;;;;;;18.71;58.94;102492.91;5075453;28;19924;-88
2022/08/10 05:58:51;;;;;;;;;;;;;;;18.73;60.04;102493.69;5081577;28;19935;-87
2022/08/10 06:01:17;;;;;;;;;;;;;;;18.78;59.61;102497.88;5078210;28;20193;-88
2022/08/10 06:03:46;;;;;;;;;;;;;;;18.82;60.24;102504.81;5067739;28;20062;-88
2022/08/10 06:06:13;;;;;;;;;;;;;;;18.85;59.45;102493.09;5084741;28;20179;-87
2022/08/10 06:08:40;;;;;;;;;;;;;;;18.91;60.77;102499.97;5063536;28;20386;-88
2022/08/10 06:11:05;;;;;;;;;;;;;;;18.97;59.98;102496.97;5080054;28;20399;-88
2022/08/10 06:16:18;;;;;;;;;;;;;;;19.10;59.23;102495.44;5078243;28;19974;-88
2022/08/10 06:18:43;;;;;;;;;;;;;;;19.13;59.96;102497.09;5065953;28;19916;-88
2022/08/10 06:21:09;;;;;;;;;;;;;;;19.19;59.43;102502.16;5077753;28;19947;-88
2022/08/10 06:23:35;;;;;;;;;;;;;;;19.26;59.99;102504.47;5076448;28;19927;-88
2022/08/10 06:26:00;;;;;;;;;;;;;;;19.32;56.84;102503.28;5077630;28;19951;-88
2022/08/10 06:28:28;;;;;;;;;;;;;;;19.43;58.52;102502.72;5080249;28;20367;-88
2022/08/10 06:30:55;;;;;;;;;;;;;;;19.54;58.73;102503.06;5078798;28;19917;-87
2022/08/10 06:33:22;;;;;;;;;;;;;;;19.60;58.83;102505.44;5087599;28;19956;-87
2022/08/10 06:35:50;;;;;;;;;;;;;;;19.68;58.27;102500.56;5086043;28;19916;-87
2022/08/10 06:38:16;;;;;;;;;;;;;;;19.78;59.25;102500.94;5085609;28;19931;-87
2022/08/10 06:40:44;;;;;;;;;;;;;;;19.83;58.04;102502.44;5063219;28;20379;-87
2022/08/10 06:43:11;;;;;;;;;;;;;;;19.98;57.24;102494.53;5056622;28;19917;-87
2022/08/10 06:45:42;;;;;;;;;;;;;;;20.08;56.94;102487.69;5079407;28;20348;-87
2022/08/10 06:48:12;;;;;;;;;;;;;;;20.16;55.59;102498.03;5077580;28;20506;-87
2022/08/10 06:50:43;;;;;;;;;;;;;;;20.26;56.25;102500.13;5077758;28;20007;-87
2022/08/10 06:53:17;;;;;;;;;;;;;;;20.33;55.68;102500.66;5080524;28;20364;-87
2022/08/10 06:55:45;;;;;;;;;;;;;;;20.45;55.92;102504.50;5087584;28;19915;-86
2022/08/10 06:58:11;;;;;;;;;;;;;;;20.53;55.43;102497.78;5082422;28;19951;-87
2022/08/10 07:00:40;;;;;;;;;;;;;;;20.62;56.52;102509.84;5062490;28;19927;-86
2022/08/10 07:03:08;;;;;;;;;;;;;;;20.80;56.51;102505.25;5056298;28;19962;-86
2022/08/10 07:05:35;;;;;;;;;;;;;;;20.90;53.86;102506.47;5061587;28;19920;-86
2022/08/10 07:08:00;;;;;;;;;;;;;;;21.02;55.23;102513.81;5077955;28;20001;-86
2022/08/10 07:10:27;;;;;;;;;;;;;;;21.14;55.90;102507.72;5087369;28;20438;-86
2022/08/10 07:12:55;;;;;;;;;;;;;;;21.18;53.08;102511.09;5087582;28;19966;-86
2022/08/10 07:15:21;;;;;;;;;;;;;;;21.25;53.01;102511.59;5067662;28;19916;-87
2022/08/10 07:17:47;;;;;;;;;;;;;;;21.45;55.50;102508.66;5075160;28;20390;-87
2022/08/10 07:20:15;;;;;;;;;;;;;;;21.63;55.50;102522.81;5074746;28;19969;-86
2022/08/10 07:22:42;;;;;;;;;;;;;;;21.82;53.71;102520.75;5064399;28;19924;-86
2022/08/10 07:25:08;;;;;;;;;;;;;;;21.97;54.90;102516.25;5087312;28;19935;-86
2022/08/10 07:27:33;;;;;;;;;;;;;;;22.14;54.17;102515.22;5083549;28;19924;-87
2022/08/10 07:29:59;;;;;;;;;;;;;;;22.24;53.23;102512.81;5075963;28;19916;-86
2022/08/10 07:32:24;;;;;;;;;;;;;;;22.31;53.33;102519.56;5084350;28;20352;-87
2022/08/10 07:34:52;;;;;;;;;;;;;;;22.41;53.41;102518.88;5069467;28;19913;-86
2022/08/10 07:37:18;;;;;;;;;;;;;;;22.56;52.88;102518.88;5082868;28;19927;-87
2022/08/10 07:39:46;;;;;;;;;;;;;;;22.75;53.15;102516.72;5077682;28;19933;-87
2022/08/10 07:42:12;;;;;;;;;;;;;;;22.92;52.77;102513.81;5076978;28;19916;-87
2022/08/10 07:44:38;;;;;;;;;;;;;;;23.28;52.47;102525.84;5086041;28;19927;-86
2022/08/10 07:47:05;;;;;;;;;;;;;;;23.70;51.18;102523.06;5081478;28;19920;-87
2022/08/10 07:49:34;;;;;;;;;;;;;;;24.14;50.07;102517.22;5081904;28;19976;-87
2022/08/10 07:52:02;;;;;;;;;;;;;;;24.53;49.22;102513.53;5083237;28;19916;-87
2022/08/10 07:54:28;;;;;;;;;;;;;;;24.87;48.58;102511.06;5086228;28;19947;-86
2022/08/10 07:56:58;;;;;;;;;;;;;;;25.31;47.61;102521.25;5062771;28;19927;-87
2022/08/10 07:59:40;;;;;;;;;;;;;;;25.76;47.05;102516.03;5074753;28;19923;-87
2022/08/10 08:02:12;;;;;;;;;;;;;;;26.06;45.57;102525.44;5081202;28;19927;-87
2022/08/10 08:04:38;;;;;;;;;;;;;;;26.44;45.26;102512.44;5069240;28;20057;-87
2022/08/10 08:07:07;;;;;;;;;;;;;;;26.90;43.86;102519.47;5085538;28;20362;-88
2022/08/10 08:09:34;;;;;;;;;;;;;;;27.16;43.11;102513.78;5059863;28;20363;-88
2022/08/10 08:12:00;;;;;;;;;;;;;;;27.45;43.30;102522.16;5081405;28;19943;-88
2022/08/10 08:14:26;;;;;;;;;;;;;;;27.75;42.23;102520.56;5087904;28;20359;-88
2022/08/10 08:16:52;;;;;;;;;;;;;;;28.09;42.09;102519.31;5086812;28;19952;-88
2022/08/10 08:19:18;;;;;;;;;;;;;;;28.41;41.52;102519.22;5080651;28;20133;-88
2022/08/10 08:21:44;;;;;;;;;;;;;;;28.76;40.93;102520.59;5066118;28;19920;-88
2022/08/10 08:24:10;;;;;;;;;;;;;;;29.04;39.34;102521.66;5082162;28;20366;-89
2022/08/10 08:26:35;;;;;;;;;;;;;;;29.32;39.72;102519.09;5066550;28;20017;-89
2022/08/10 08:29:01;;;;;;;;;;;;;;;29.68;38.80;102512.09;5068128;28;19920;-88
2022/08/10 08:31:26;;;;;;;;;;;;;;;29.99;38.96;102519.03;5063903;28;19916;-88
2022/08/10 08:33:53;;;;;;;;;;;;;;;30.40;38.15;102510.56;5087489;28;19924;-87
2022/08/10 08:36:18;;;;;;;;;;;;;;;30.72;37.36;102510.13;5083370;28;19927;-87
2022/08/10 08:38:44;;;;;;;;;;;;;;;31.04;35.82;102509.63;5089926;28;20314;-88
2022/08/10 08:41:33;;;;;;;;;;;;;;;31.36;36.04;102508.25;5080809;28;20293;-88
2022/08/10 08:44:10;;;;;;;;;;;;;;;31.80;35.60;102513.69;5075352;28;19924;-88
2022/08/10 08:46:43;;;;;;;;;;;;;;;32.14;33.56;102511.03;5086962;28;19971;-89
2022/08/10 08:49:14;;;;;;;;;;;;;;;32.41;34.92;102508.13;5064353;28;20166;-88
2022/08/10 08:51:47;;;;;;;;;;;;;;;32.86;33.38;102506.88;5082918;28;19926;-88
2022/08/10 08:54:28;;;;;;;;;;;;;;;33.23;33.56;102514.66;5086064;28;19974;-88
2022/08/10 08:57:06;;;;;;;;;;;;;;;33.67;31.53;102517.09;5083423;28;20094;-89
2022/08/10 08:59:44;;;;;;;;;;;;;;;33.94;32.22;102517.72;5069725;28;19935;-88
2022/08/10 09:02:21;;;;;;;;;;;;;;;34.35;31.99;102512.13;5079871;28;19916;-89
2022/08/10 09:05:05;;;;;;;;;;;;;;;34.60;31.01;102508.28;5082396;28;19923;-88
2022/08/10 09:07:55;;;;;;;;;;;;;;;34.82;30.02;102506.59;5065258;28;20014;-89
2022/08/10 09:10:29;;;;;;;;;;;;;;;35.23;29.36;102503.56;5080898;28;19916;-89
2022/08/10 09:13:17;;;;;;;;;;;;;;;35.74;29.17;102501.06;5070372;28;20037;-89
2022/08/10 09:15:43;;;;;;;;;;;;;;;35.99;29.24;102504.44;5063268;28;19916;-88
2022/08/10 09:18:26;;;;;;;;;;;;;;;36.23;28.04;102497.75;5070501;28;19931;-89
2022/08/10 09:20:58;;;;;;;;;;;;;;;36.38;28.00;102495.88;5079388;28;19924;-89
2022/08/10 09:23:36;;;;;;;;;;;;;;;36.68;27.48;102493.91;5083880;28;19955;-89
2022/08/10 09:26:07;;;;;;;;;;;;;;;36.96;27.30;102495.94;5082042;28;19921;-89
2022/08/10 09:28:37;;;;;;;;;;;;;;;37.01;26.72;102490.69;5083266;28;19962;-89
2022/08/10 09:31:06;;;;;;;;;;;;;;;36.64;27.26;102487.09;5061094;28;19931;-89
2022/08/10 09:33:52;;;;;;;;;;;;;;;36.31;27.66;102483.91;5084176;28;19916;-89
2022/08/10 09:36:27;;;;;;;;;;;;;;;36.44;27.15;102486.84;5086485;28;19920;-89
2022/08/10 09:39:12;;;;;;;;;;;;;;;36.58;26.78;102479.59;5083581;28;19941;-89
2022/08/10 09:41:54;;;;;;;;;;;;;;;36.84;26.94;102479.06;5082732;28;19939;-89
2022/08/10 09:44:20;;;;;;;;;;;;;;;36.82;26.47;102475.63;5078800;28;19918;-89
2022/08/10 09:47:03;;;;;;;;;;;;;;;36.51;26.41;102470.38;5084436;28;20030;-89
2022/08/10 09:49:39;;;;;;;;;;;;;;;36.34;26.59;102479.91;5078738;28;20167;-89
2022/08/10 09:52:08;;;;;;;;;;;;;;;35.82;26.36;102475.38;5078750;28;19923;-89
2022/08/10 09:54:52;;;;;;;;;;;;;;;35.75;27.68;102476.09;5070320;28;19924;-89
2022/08/10 09:57:30;;;;;;;;;;;;;;;35.75;27.29;102465.09;5064922;28;20386;-89
2022/08/10 09:59:55;;;;;;;;;;;;;;;35.64;26.31;102467.47;5064580;28;19931;-89
2022/08/10 10:02:26;;;;;;;;;;;;;;;35.60;28.11;102461.47;5076822;28;19916;-89
2022/08/10 10:04:51;;;;;;;;;;;;;;;35.51;26.90;102466.22;5079636;28;19997;-90
2022/08/10 10:07:23;;;;;;;;;;;;;;;35.41;28.22;102462.00;5082949;28;19916;-90
2022/08/10 10:10:11;;;;;;;;;;;;;;;35.39;28.50;102455.81;5064400;28;20574;-89
2022/08/10 10:12:52;;;;;;;;;;;;;;;35.41;27.62;102453.75;5053042;28;19916;-89
2022/08/10 10:15:33;;;;;;;;;;;;;;;35.26;27.72;102448.22;5081624;28;19916;-89
2022/08/10 10:18:01;;;;;;;;;;;;;;;34.84;26.94;102437.72;5084761;28;20347;-89
2022/08/10 10:20:45;;;;;;;;;;;;;;;35.05;28.34;102442.53;5079955;28;19920;-88
2022/08/10 10:23:22;;;;;;;;;;;;;;;35.11;26.42;102437.16;5085858;28;19920;-88
2022/08/10 10:25:50;;;;;;;;;;;;;;;34.88;27.61;102437.16;5067787;28;19930;-88
2022/08/10 10:28:18;;;;;;;;;;;;;;;34.84;25.57;102424.81;5084963;28;19924;-88
2022/08/10 10:30:53;;;;;;;;;;;;;;;34.88;27.29;102431.66;5084768;28;19960;-88
2022/08/10 10:33:37;;;;;;;;;;;;;;;35.13;27.14;102435.09;5088468;28;19916;-88
2022/08/10 10:36:04;;;;;;;;;;;;;;;35.32;27.08;102427.34;5084014;28;19927;-88
2022/08/10 10:38:33;;;;;;;;;;;;;;;35.37;25.08;102433.16;5077626;28;20299;-89
2022/08/10 10:41:07;;;;;;;;;;;;;;;35.10;26.52;102429.09;5084383;28;19920;-89
2022/08/10 10:43:41;;;;;;;;;;;;;;;35.50;25.82;102425.13;5074644;28;19912;-89
2022/08/10 10:46:18;;;;;;;;;;;;;;;35.85;24.63;102423.50;5055829;28;20529;-89
2022/08/10 10:48:51;;;;;;;;;;;;;;;36.12;25.72;102423.91;5081010;28;19966;-89
2022/08/10 10:51:36;;;;;;;;;;;;;;;36.39;25.16;102411.31;5082440;28;20379;-89
2022/08/10 10:54:20;;;;;;;;;;;;;;;36.30;25.42;102410.56;5065719;28;20451;-90
2022/08/10 10:56:52;;;;;;;;;;;;;;;36.39;25.56;102414.91;5077329;28;19927;-89
2022/08/10 10:59:18;;;;;;;;;;;;;;;36.58;24.91;102402.44;5076695;28;20601;-89
2022/08/10 11:01:46;;;;;;;;;;;;;;;36.19;24.68;102400.06;5083245;28;20006;-89
2022/08/10 11:04:29;;;;;;;;;;;;;;;35.78;23.95;102401.41;5082248;28;19959;-89
2022/08/10 11:07:04;;;;;;;;;;;;;;;35.64;25.09;102404.19;5083839;28;20037;-89
2022/08/10 11:09:38;;;;;;;;;;;;;;;36.17;23.52;102391.13;5062445;28;19923;-89
2022/08/10 11:12:24;;;;;;;;;;;;;;;36.46;24.21;102392.97;5079384;28;19924;-89
2022/08/10 11:14:53;;;;;;;;;;;;;;;36.69;23.27;102385.38;5082226;28;19916;-89
2022/08/10 11:17:25;;;;;;;;;;;;;;;36.55;22.43;102385.44;5078227;28;19928;-88
2022/08/10 11:20:11;;;;;;;;;;;;;;;36.49;24.03;102390.69;5081876;28;20264;-89
2022/08/10 11:22:39;;;;;;;;;;;;;;;36.71;22.51;102385.19;5064765;28;19916;-89
2022/08/10 11:25:09;;;;;;;;;;;;;;;37.07;23.19;102387.84;5080792;28;20379;-89
2022/08/10 11:27:34;;;;;;;;;;;;;;;37.33;21.87;102380.84;5083081;28;19955;-89
2022/08/10 11:30:04;;;;;;;;;;;;;;;37.40;23.23;102382.63;5083830;28;20374;-89
2022/08/10 11:32:35;;;;;;;;;;;;;;;37.20;22.81;102378.84;5081923;28;19920;-88
2022/08/10 11:35:30;;;;;;;;;;;;;;;37.14;22.11;102385.16;5081198;28;19916;-88
2022/08/10 11:38:11;;;;;;;;;;;;;;;37.53;21.98;102381.84;5062636;28;19920;-88
2022/08/10 11:40:48;;;;;;;;;;;;;;;37.12;22.11;102384.50;5083060;28;19963;-89
2022/08/10 11:43:21;;;;;;;;;;;;;;;36.64;22.76;102373.22;5071893;28;19924;-89
2022/08/10 11:45:53;;;;;;;;;;;;;;;36.64;23.33;102370.47;5080470;28;19915;-89
2022/08/10 11:48:24;;;;;;;;;;;;;;;36.96;22.75;102369.09;5075776;28;19920;-89
2022/08/10 11:51:03;;;;;;;;;;;;;;;37.23;22.24;102367.41;5063916;28;19916;-89
2022/08/10 11:53:35;;;;;;;;;;;;;;;36.90;21.71;102367.13;5085276;28;19972;-89
2022/08/10 11:56:01;;;;;;;;;;;;;;;37.09;22.39;102365.59;5079194;28;19920;-88
2022/08/10 12:01:12;;;;;;;;;;;;;;;37.73;20.96;102362.66;5083822;28;19961;-89
2022/08/10 12:03:40;;;;;;;;;;;;;;;37.87;20.85;102364.44;5091527;28;19920;-89
2022/08/10 12:06:12;;;;;;;;;;;;;;;38.04;21.42;102359.38;5088225;28;20302;-88
2022/08/10 12:08:37;;;;;;;;;;;;;;;37.83;20.28;102352.06;5067100;28;20348;-88
2022/08/10 12:11:03;;;;;;;;;;;;;;;37.47;19.44;102355.06;5087038;28;19916;-88
2022/08/10 12:13:29;;;;;;;;;;;;;;;37.28;21.93;102362.97;5085671;28;19927;-88
2022/08/10 12:16:03;;;;;;;;;;;;;;;37.66;21.86;102350.69;5081886;28;19916;-88
2022/08/10 12:18:32;;;;;;;;;;;;;;;38.00;20.38;102356.19;5080884;28;20935;-89
2022/08/10 12:20:59;;;;;;;;;;;;;;;37.82;20.85;102350.38;5079377;28;19999;-89
2022/08/10 12:23:32;;;;;;;;;;;;;;;37.72;21.52;102352.63;5078593;28;20356;-88
2022/08/10 12:26:06;;;;;;;;;;;;;;;37.74;21.08;102351.38;5083242;28;19920;-89
2022/08/10 12:28:50;;;;;;;;;;;;;;;37.39;21.23;102350.56;5088003;28;19913;-89
2022/08/10 12:31:17;;;;;;;;;;;;;;;37.27;21.20;102352.16;5079314;28;19920;-88
2022/08/10 12:33:48;;;;;;;;;;;;;;;37.64;21.91;102339.03;5084682;28;19919;-88
2022/08/10 12:36:21;;;;;;;;;;;;;;;38.00;20.83;102336.84;5083704;28;20010;-88
2022/08/10 12:39:05;;;;;;;;;;;;;;;38.18;21.03;102332.66;5064257;28;20371;-89
2022/08/10 12:41:38;;;;;;;;;;;;;;;38.26;20.42;102330.53;5071619;28;20412;-88
2022/08/10 12:44:33;;;;;;;;;;;;;;;38.38;20.35;102327.19;5086355;28;19959;-88
2022/08/10 12:47:05;;;;;;;;;;;;;;;38.33;19.73;102322.28;5064728;28;19922;-89
2022/08/10 12:49:33;;;;;;;;;;;;;;;38.53;21.02;102320.41;5087110;28;20397;-89
2022/08/10 12:52:10;;;;;;;;;;;;;;;38.81;20.85;102311.09;5082621;28;19924;-89